Time;durP1;ratioP1;P1;durP2;ratioP2;P2;SDS_P1;SDS_P2;PMS_P1;PMS_P2;Temp;Humidity;BMP_temperature;BMP_pressure;BME280_temperature;BME280_humidity;BME280_pressure;Samples;Min_cycle;Max_cycle;Signal;HPM_P1;HPM_P2
2023/10/23 00:02:27;;;;;;;2.67;1.75;;;;;;;;;;5280386;28;20024;-75
2023/10/23 00:04:59;;;;;;;3.17;2.00;;;;;;;;;;5281398;28;20059;-75
2023/10/23 00:07:30;;;;;;;3.00;2.00;;;;;;;;;;5281302;28;20255;-75
2023/10/23 00:10:01;;;;;;;3.50;1.83;;;;;;;;;;5281322;28;20028;-75
2023/10/23 00:12:32;;;;;;;3.65;2.05;;;;;;;;;;5285080;28;20124;-75
2023/10/23 00:15:04;;;;;;;4.47;1.60;;;;;;;;;;5285069;28;20043;-75
2023/10/23 00:17:35;;;;;;;3.97;2.15;;;;;;;;;;5284186;28;20259;-75
2023/10/23 00:20:08;;;;;;;3.10;1.50;;;;;;;;;;5284870;28;20016;-75
2023/10/23 00:22:39;;;;;;;2.80;1.75;;;;;;;;;;5284063;28;20737;-75
2023/10/23 00:25:10;;;;;;;3.00;1.83;;;;;;;;;;5284949;28;20107;-75
2023/10/23 00:27:41;;;;;;;4.05;1.98;;;;;;;;;;5284913;28;20025;-75
2023/10/23 00:30:12;;;;;;;2.75;2.08;;;;;;;;;;5283966;28;20047;-74
2023/10/23 00:32:44;;;;;;;3.55;2.20;;;;;;;;;;5284651;28;20023;-75
2023/10/23 00:35:15;;;;;;;4.10;1.70;;;;;;;;;;5284525;28;20506;-75
2023/10/23 00:37:46;;;;;;;3.58;1.77;;;;;;;;;;5283766;28;20024;-75
2023/10/23 00:40:17;;;;;;;3.93;1.73;;;;;;;;;;5284977;28;20036;-75
2023/10/23 00:42:48;;;;;;;3.25;1.90;;;;;;;;;;5284233;28;20345;-75
2023/10/23 00:45:20;;;;;;;4.05;2.28;;;;;;;;;;5283952;28;20031;-75
2023/10/23 00:47:51;;;;;;;4.18;1.40;;;;;;;;;;5283801;28;20036;-75
2023/10/23 00:50:23;;;;;;;3.75;1.63;;;;;;;;;;5284483;28;20036;-75
2023/10/23 00:52:54;;;;;;;3.15;1.85;;;;;;;;;;5284077;28;20024;-75
2023/10/23 00:55:25;;;;;;;4.45;1.70;;;;;;;;;;5284190;28;20108;-75
2023/10/23 00:57:57;;;;;;;2.88;1.35;;;;;;;;;;5283400;28;20491;-75
2023/10/23 01:00:28;;;;;;;3.25;1.35;;;;;;;;;;5284304;28;20028;-75
2023/10/23 01:02:59;;;;;;;4.88;1.50;;;;;;;;;;5284141;28;20013;-75
2023/10/23 01:05:30;;;;;;;3.58;1.17;;;;;;;;;;5283331;28;20017;-75
2023/10/23 01:08:03;;;;;;;3.33;1.45;;;;;;;;;;5283697;28;20069;-74
2023/10/23 01:10:35;;;;;;;5.35;1.42;;;;;;;;;;5283882;28;20025;-75
2023/10/23 01:13:07;;;;;;;3.80;1.42;;;;;;;;;;5283231;28;20390;-75
2023/10/23 01:15:38;;;;;;;5.22;1.70;;;;;;;;;;5283918;28;20040;-75
2023/10/23 01:18:10;;;;;;;4.30;1.73;;;;;;;;;;5283811;28;20020;-75
2023/10/23 01:20:41;;;;;;;3.60;1.67;;;;;;;;;;5283052;28;20103;-74
2023/10/23 01:23:13;;;;;;;4.20;1.60;;;;;;;;;;5282882;28;20029;-74
2023/10/23 01:25:44;;;;;;;3.20;1.60;;;;;;;;;;5282846;28;20017;-74
2023/10/23 01:28:15;;;;;;;7.95;1.70;;;;;;;;;;5283918;28;20013;-74
2023/10/23 01:30:47;;;;;;;4.65;1.63;;;;;;;;;;5283289;28;20023;-74
2023/10/23 01:33:18;;;;;;;4.80;1.27;;;;;;;;;;5282872;28;20013;-74
2023/10/23 01:35:49;;;;;;;5.30;1.90;;;;;;;;;;5282974;28;20033;-74
2023/10/23 01:38:20;;;;;;;4.55;1.80;;;;;;;;;;5283582;28;20017;-74
2023/10/23 01:40:52;;;;;;;4.90;1.65;;;;;;;;;;5282335;28;20475;-74
2023/10/23 01:43:23;;;;;;;3.28;1.48;;;;;;;;;;5283368;28;20025;-74
2023/10/23 01:45:54;;;;;;;3.80;1.40;;;;;;;;;;5283092;28;20047;-75
2023/10/23 01:48:26;;;;;;;4.13;1.70;;;;;;;;;;5282219;28;20463;-74
2023/10/23 01:51:00;;;;;;;3.63;1.85;;;;;;;;;;5282989;28;20591;-75
2023/10/23 01:53:31;;;;;;;8.80;1.50;;;;;;;;;;5283112;28;20024;-75
2023/10/23 01:56:06;;;;;;;2.53;1.63;;;;;;;;;;5282256;28;20040;-75
2023/10/23 01:58:37;;;;;;;7.18;1.88;;;;;;;;;;5282898;28;20935;-75
2023/10/23 02:01:22;;;;;;;5.75;1.58;;;;;;;;;;5282277;28;20031;-74
2023/10/23 02:03:53;;;;;;;4.88;1.38;;;;;;;;;;5282549;28;20088;-75
2023/10/23 02:06:24;;;;;;;4.13;1.67;;;;;;;;;;5282779;28;20100;-75
2023/10/23 02:08:55;;;;;;;3.30;1.30;;;;;;;;;;5282038;28;20020;-75
2023/10/23 02:11:27;;;;;;;4.65;1.80;;;;;;;;;;5282882;28;20120;-75
2023/10/23 02:13:58;;;;;;;5.63;1.75;;;;;;;;;;5282659;28;20039;-76
2023/10/23 02:16:29;;;;;;;4.78;1.30;;;;;;;;;;5281830;28;20024;-75
2023/10/23 02:19:00;;;;;;;3.63;1.83;;;;;;;;;;5282567;28;20016;-75
2023/10/23 02:21:31;;;;;;;4.25;1.83;;;;;;;;;;5282353;28;20270;-75
2023/10/23 02:24:03;;;;;;;4.22;1.83;;;;;;;;;;5281740;28;20028;-76
2023/10/23 02:26:34;;;;;;;3.17;1.40;;;;;;;;;;5282282;28;20051;-76
2023/10/23 02:29:05;;;;;;;4.30;1.65;;;;;;;;;;5281659;28;20434;-76
2023/10/23 02:31:36;;;;;;;3.80;1.60;;;;;;;;;;5282411;28;20086;-76
2023/10/23 02:34:07;;;;;;;4.47;1.75;;;;;;;;;;5282053;28;20033;-76
2023/10/23 02:36:39;;;;;;;5.47;1.63;;;;;;;;;;5281496;28;20040;-76
2023/10/23 02:39:10;;;;;;;7.60;1.73;;;;;;;;;;5282322;28;20031;-76
2023/10/23 02:41:41;;;;;;;3.72;1.65;;;;;;;;;;5282229;28;20028;-76
2023/10/23 02:44:12;;;;;;;4.55;1.83;;;;;;;;;;5281346;28;20027;-76
2023/10/23 02:46:43;;;;;;;4.80;1.75;;;;;;;;;;5281815;28;20039;-75
2023/10/23 02:49:15;;;;;;;5.90;1.60;;;;;;;;;;5282345;28;20081;-75
2023/10/23 02:51:46;;;;;;;3.40;1.77;;;;;;;;;;5280888;28;20073;-75
2023/10/23 02:54:18;;;;;;;3.78;1.42;;;;;;;;;;5282317;28;20119;-75
2023/10/23 02:56:49;;;;;;;6.10;1.75;;;;;;;;;;5281520;28;20021;-75
2023/10/23 02:59:21;;;;;;;3.55;1.30;;;;;;;;;;5281338;28;20041;-76
2023/10/23 03:01:52;;;;;;;4.57;1.40;;;;;;;;;;5281773;28;20471;-76
2023/10/23 03:04:23;;;;;;;3.83;1.60;;;;;;;;;;5281110;28;20103;-76
2023/10/23 03:06:54;;;;;;;5.47;1.55;;;;;;;;;;5281828;28;20036;-76
2023/10/23 03:09:26;;;;;;;3.47;1.60;;;;;;;;;;5281782;28;20044;-76
2023/10/23 03:11:57;;;;;;;3.83;1.45;;;;;;;;;;5280970;28;20021;-76
2023/10/23 03:14:28;;;;;;;3.65;1.58;;;;;;;;;;5281913;28;20475;-76
2023/10/23 03:16:59;;;;;;;5.60;1.74;;;;;;;;;;5282109;28;20428;-76
2023/10/23 03:19:30;;;;;;;4.38;1.73;;;;;;;;;;5280913;28;20018;-76
2023/10/23 03:22:02;;;;;;;5.22;1.70;;;;;;;;;;5281564;28;20025;-78
2023/10/23 03:24:33;;;;;;;4.60;1.80;;;;;;;;;;5281611;28;20044;-76
2023/10/23 03:27:04;;;;;;;4.55;1.85;;;;;;;;;;5280948;28;20039;-76
2023/10/23 03:29:35;;;;;;;4.28;1.38;;;;;;;;;;5281729;28;20443;-76
2023/10/23 03:32:06;;;;;;;3.38;1.80;;;;;;;;;;5281585;28;20028;-76
2023/10/23 03:34:37;;;;;;;3.00;1.55;;;;;;;;;;5281086;28;20083;-76
2023/10/23 03:37:09;;;;;;;4.10;1.60;;;;;;;;;;5281594;28;20024;-76
2023/10/23 03:39:40;;;;;;;3.95;1.50;;;;;;;;;;5280875;28;20089;-76
2023/10/23 03:42:11;;;;;;;4.00;1.60;;;;;;;;;;5281446;28;20024;-76
2023/10/23 03:44:42;;;;;;;4.18;1.23;;;;;;;;;;5281829;28;20033;-76
2023/10/23 03:47:13;;;;;;;4.43;1.60;;;;;;;;;;5284541;28;20519;-76
2023/10/23 03:49:46;;;;;;;3.85;1.40;;;;;;;;;;5285475;28;20360;-76
2023/10/23 03:52:17;;;;;;;5.38;1.40;;;;;;;;;;5285939;28;20008;-76
2023/10/23 03:54:48;;;;;;;3.30;1.36;;;;;;;;;;5284178;28;20029;-76
2023/10/23 03:57:19;;;;;;;3.78;1.22;;;;;;;;;;5285636;28;20021;-76
2023/10/23 03:59:50;;;;;;;5.10;1.30;;;;;;;;;;5285145;28;20017;-76
2023/10/23 04:02:22;;;;;;;4.95;1.17;;;;;;;;;;5284714;28;20019;-76
2023/10/23 04:04:53;;;;;;;4.03;1.58;;;;;;;;;;5284937;28;20021;-76
2023/10/23 04:07:24;;;;;;;3.98;1.68;;;;;;;;;;5284399;28;20028;-76
2023/10/23 04:09:55;;;;;;;4.75;1.60;;;;;;;;;;5285074;28;20020;-76
2023/10/23 04:12:26;;;;;;;4.60;1.73;;;;;;;;;;5285294;28;20021;-76
2023/10/23 04:14:57;;;;;;;2.97;1.52;;;;;;;;;;5284337;28;20298;-75
2023/10/23 04:17:29;;;;;;;5.15;1.27;;;;;;;;;;5285029;28;20021;-76
2023/10/23 04:20:00;;;;;;;5.96;1.56;;;;;;;;;;5284821;28;20044;-76
2023/10/23 04:22:31;;;;;;;3.86;1.60;;;;;;;;;;5284037;28;20024;-76
2023/10/23 04:25:02;;;;;;;3.75;1.17;;;;;;;;;;5284151;28;20112;-75
2023/10/23 04:27:34;;;;;;;4.63;1.70;;;;;;;;;;5284328;28;20573;-76
2023/10/23 04:30:06;;;;;;;3.80;1.52;;;;;;;;;;5283548;28;20483;-76
2023/10/23 04:32:37;;;;;;;4.45;1.42;;;;;;;;;;5284434;28;20031;-76
2023/10/23 04:35:08;;;;;;;3.75;1.50;;;;;;;;;;5284103;28;20025;-76
2023/10/23 04:37:39;;;;;;;5.03;1.33;;;;;;;;;;5283638;28;20048;-76
2023/10/23 04:40:10;;;;;;;3.78;1.60;;;;;;;;;;5284237;28;20020;-76
2023/10/23 04:42:42;;;;;;;2.60;1.20;;;;;;;;;;5283513;28;20078;-76
2023/10/23 04:45:13;;;;;;;3.28;1.48;;;;;;;;;;5284308;28;20028;-77
2023/10/23 04:47:44;;;;;;;4.47;1.50;;;;;;;;;;5283944;28;20595;-77
2023/10/23 04:50:16;;;;;;;6.00;1.30;;;;;;;;;;5283859;28;20021;-76
2023/10/23 04:52:47;;;;;;;2.92;1.10;;;;;;;;;;5283812;28;20091;-75
2023/10/23 04:55:18;;;;;;;4.15;1.40;;;;;;;;;;5284311;28;20036;-76
2023/10/23 04:57:49;;;;;;;5.03;1.70;;;;;;;;;;5281902;28;20510;-76
2023/10/23 05:00:21;;;;;;;5.95;1.55;;;;;;;;;;5284647;28;20021;-76
2023/10/23 05:02:52;;;;;;;4.35;1.45;;;;;;;;;;5283689;28;20078;-75
2023/10/23 05:05:23;;;;;;;3.45;1.50;;;;;;;;;;5283399;28;20467;-75
2023/10/23 05:07:54;;;;;;;4.18;1.40;;;;;;;;;;5283773;28;20016;-75
2023/10/23 05:10:26;;;;;;;5.10;1.58;;;;;;;;;;5283920;28;20429;-76
2023/10/23 05:12:57;;;;;;;2.28;1.00;;;;;;;;;;5283318;28;20020;-76
2023/10/23 05:15:28;;;;;;;3.63;1.17;;;;;;;;;;5283706;28;20040;-76
2023/10/23 05:17:59;;;;;;;2.60;1.10;;;;;;;;;;5282887;28;20027;-77
2023/10/23 05:20:33;;;;;;;4.52;1.26;;;;;;;;;;5283595;28;20052;-78
2023/10/23 05:23:04;;;;;;;2.97;1.27;;;;;;;;;;5283781;28;20020;-78
2023/10/23 05:25:36;;;;;;;3.58;1.20;;;;;;;;;;5282914;28;20050;-77
2023/10/23 05:28:07;;;;;;;4.70;1.02;;;;;;;;;;5283576;28;20099;-76
2023/10/23 05:30:38;;;;;;;2.80;1.44;;;;;;;;;;5283653;28;20382;-77
2023/10/23 05:33:09;;;;;;;4.14;1.40;;;;;;;;;;5282785;28;20383;-76
2023/10/23 05:35:40;;;;;;;5.00;1.20;;;;;;;;;;5283568;28;20433;-76
2023/10/23 05:38:12;;;;;;;4.70;1.10;;;;;;;;;;5283472;28;20024;-76
2023/10/23 05:40:43;;;;;;;5.25;1.65;;;;;;;;;;5282583;28;20028;-76
2023/10/23 05:43:17;;;;;;;5.90;1.75;;;;;;;;;;5283134;28;20016;-76
2023/10/23 05:45:48;;;;;;;5.97;1.40;;;;;;;;;;5282175;28;20021;-76
2023/10/23 05:48:19;;;;;;;5.03;1.42;;;;;;;;;;5283177;28;20454;-76
2023/10/23 05:51:00;;;;;;;4.00;1.10;;;;;;;;;;5283060;28;20027;-78
2023/10/23 05:53:31;;;;;;;4.05;1.23;;;;;;;;;;5282216;28;20021;-78
2023/10/23 05:56:03;;;;;;;3.88;1.27;;;;;;;;;;5283212;28;20367;-78
2023/10/23 05:58:35;;;;;;;4.25;1.25;;;;;;;;;;5283092;28;20016;-77
2023/10/23 06:01:07;;;;;;;4.30;1.15;;;;;;;;;;5282245;28;20020;-78
2023/10/23 06:03:38;;;;;;;3.42;1.15;;;;;;;;;;5282313;28;20025;-78
2023/10/23 06:06:12;;;;;;;4.15;1.30;;;;;;;;;;5282535;28;20502;-78
2023/10/23 06:08:43;;;;;;;3.33;1.20;;;;;;;;;;5281834;28;20073;-77
2023/10/23 06:11:15;;;;;;;3.92;1.40;;;;;;;;;;5282855;28;20020;-78
2023/10/23 06:13:46;;;;;;;4.53;1.48;;;;;;;;;;5282384;28;20062;-78
2023/10/23 06:16:17;;;;;;;2.88;1.10;;;;;;;;;;5281745;28;20037;-78
2023/10/23 06:18:48;;;;;;;4.36;1.40;;;;;;;;;;5281945;28;20387;-78
2023/10/23 06:21:19;;;;;;;4.05;1.20;;;;;;;;;;5281989;28;20483;-78
2023/10/23 06:23:50;;;;;;;3.97;1.10;;;;;;;;;;5282106;28;20048;-78
2023/10/23 06:26:22;;;;;;;2.98;1.28;;;;;;;;;;5282651;28;20035;-78
2023/10/23 06:28:53;;;;;;;5.53;1.65;;;;;;;;;;5281331;28;20098;-77
2023/10/23 06:31:24;;;;;;;6.16;1.16;;;;;;;;;;5282160;28;20048;-78
2023/10/23 06:33:55;;;;;;;2.64;1.00;;;;;;;;;;5282225;28;20028;-77
2023/10/23 06:36:26;;;;;;;5.57;1.52;;;;;;;;;;5281354;28;20166;-79
2023/10/23 06:38:57;;;;;;;4.97;1.27;;;;;;;;;;5282106;28;20020;-78
2023/10/23 06:41:30;;;;;;;4.85;1.50;;;;;;;;;;5282172;28;20379;-78
2023/10/23 06:44:01;;;;;;;7.88;1.50;;;;;;;;;;5281034;28;20027;-78
2023/10/23 06:46:32;;;;;;;6.63;1.90;;;;;;;;;;5281990;28;20487;-76
2023/10/23 06:49:03;;;;;;;8.40;1.80;;;;;;;;;;5281567;28;20031;-76
2023/10/23 06:51:36;;;;;;;6.35;1.40;;;;;;;;;;5281088;28;20020;-77
2023/10/23 06:54:07;;;;;;;3.22;1.10;;;;;;;;;;5281767;28;20017;-77
2023/10/23 06:56:38;;;;;;;3.70;1.50;;;;;;;;;;5281085;28;20091;-75
2023/10/23 06:59:09;;;;;;;3.58;1.30;;;;;;;;;;5282083;28;20008;-75
2023/10/23 07:01:41;;;;;;;5.07;1.55;;;;;;;;;;5281934;28;20025;-76
2023/10/23 07:04:12;;;;;;;7.53;2.10;;;;;;;;;;5280725;28;20008;-76
2023/10/23 07:06:43;;;;;;;3.15;1.40;;;;;;;;;;5281572;28;20060;-73
2023/10/23 07:09:17;;;;;;;3.47;1.27;;;;;;;;;;5281922;28;20016;-77
2023/10/23 07:11:49;;;;;;;3.75;1.30;;;;;;;;;;5280828;28;20032;-77
2023/10/23 07:14:20;;;;;;;3.67;1.45;;;;;;;;;;5282041;28;20017;-76
2023/10/23 07:16:51;;;;;;;7.85;1.83;;;;;;;;;;5281421;28;20090;-76
2023/10/23 07:19:22;;;;;;;5.70;1.72;;;;;;;;;;5280611;28;20016;-79
2023/10/23 07:21:53;;;;;;;4.07;1.33;;;;;;;;;;5281370;28;20012;-77
2023/10/23 07:24:24;;;;;;;5.63;1.30;;;;;;;;;;5280975;28;20147;-73
2023/10/23 07:26:56;;;;;;;6.68;1.40;;;;;;;;;;5281152;28;20020;-77
2023/10/23 07:29:27;;;;;;;5.32;2.30;;;;;;;;;;5281478;28;20017;-74
2023/10/23 07:31:58;;;;;;;3.97;1.48;;;;;;;;;;5280423;28;20023;-73
2023/10/23 07:34:29;;;;;;;3.53;1.80;;;;;;;;;;5281632;28;20029;-74
2023/10/23 07:37:00;;;;;;;3.63;1.40;;;;;;;;;;5281221;28;20037;-73
2023/10/23 07:39:32;;;;;;;4.22;1.85;;;;;;;;;;5280696;28;20040;-75
2023/10/23 07:42:03;;;;;;;5.15;1.70;;;;;;;;;;5281200;28;20070;-75
2023/10/23 07:44:34;;;;;;;6.05;2.10;;;;;;;;;;5281476;28;20479;-75
2023/10/23 07:47:05;;;;;;;3.78;1.70;;;;;;;;;;5280574;28;20058;-76
2023/10/23 07:49:36;;;;;;;4.57;1.95;;;;;;;;;;5281337;28;20021;-76
2023/10/23 07:52:08;;;;;;;4.47;1.83;;;;;;;;;;5281228;28;20479;-76
2023/10/23 07:54:39;;;;;;;7.25;2.33;;;;;;;;;;5280496;28;20446;-74
2023/10/23 07:57:10;;;;;;;3.92;2.00;;;;;;;;;;5281440;28;20071;-75
2023/10/23 07:59:41;;;;;;;4.93;2.50;;;;;;;;;;5280679;28;20035;-74
2023/10/23 08:02:12;;;;;;;5.14;2.10;;;;;;;;;;5281233;28;20016;-74
2023/10/23 08:04:43;;;;;;;9.52;1.98;;;;;;;;;;5281221;28;20017;-73
2023/10/23 08:07:15;;;;;;;4.20;2.10;;;;;;;;;;5280238;28;20065;-74
2023/10/23 08:09:47;;;;;;;9.80;2.38;;;;;;;;;;5281044;28;20271;-74
2023/10/23 08:12:18;;;;;;;4.63;2.08;;;;;;;;;;5281533;28;20379;-74
2023/10/23 08:14:50;;;;;;;4.95;1.98;;;;;;;;;;5279905;28;20035;-75
2023/10/23 08:17:21;;;;;;;4.07;2.03;;;;;;;;;;5281216;28;20021;-75
2023/10/23 08:19:52;;;;;;;4.03;2.50;;;;;;;;;;5280150;28;20482;-74
2023/10/23 08:22:24;;;;;;;5.20;2.15;;;;;;;;;;5280187;28;20024;-73
2023/10/23 08:24:55;;;;;;;6.35;1.92;;;;;;;;;;5280861;28;20100;-74
2023/10/23 08:27:26;;;;;;;3.90;1.92;;;;;;;;;;5281028;28;20030;-75
2023/10/23 08:29:58;;;;;;;5.43;2.25;;;;;;;;;;5280132;28;20420;-74
2023/10/23 08:32:29;;;;;;;7.43;2.58;;;;;;;;;;5283972;28;20016;-74
2023/10/23 08:35:00;;;;;;;7.38;2.22;;;;;;;;;;5283325;28;20106;-73
2023/10/23 08:37:31;;;;;;;7.30;1.77;;;;;;;;;;5284546;28;20482;-74
2023/10/23 08:40:06;;;;;;;8.93;2.47;;;;;;;;;;5284431;28;20028;-73
2023/10/23 08:42:37;;;;;;;6.40;2.40;;;;;;;;;;5283415;28;20342;-74
2023/10/23 08:45:09;;;;;;;7.82;2.22;;;;;;;;;;5284312;28;20103;-74
2023/10/23 08:47:40;;;;;;;7.85;2.13;;;;;;;;;;5284095;28;20487;-74
2023/10/23 08:50:11;;;;;;;7.53;2.45;;;;;;;;;;5283485;28;20146;-74
2023/10/23 08:52:46;;;;;;;5.50;1.63;;;;;;;;;;5283878;28;20103;-74
2023/10/23 08:55:18;;;;;;;6.15;2.58;;;;;;;;;;5284382;28;20035;-75
2023/10/23 08:57:51;;;;;;;4.72;2.13;;;;;;;;;;5283290;28;20012;-74
2023/10/23 09:00:22;;;;;;;6.82;1.95;;;;;;;;;;5284483;28;20023;-73
2023/10/23 09:02:54;;;;;;;5.50;1.60;;;;;;;;;;5283124;28;20009;-73
2023/10/23 09:05:25;;;;;;;9.07;2.20;;;;;;;;;;5283868;28;20090;-73
2023/10/23 09:07:57;;;;;;;6.68;1.73;;;;;;;;;;5283871;28;20017;-73
2023/10/23 09:10:28;;;;;;;6.72;1.95;;;;;;;;;;5283369;28;20292;-73
2023/10/23 09:13:00;;;;;;;9.30;2.13;;;;;;;;;;5283707;28;20020;-73
2023/10/23 09:15:31;;;;;;;4.15;1.52;;;;;;;;;;5283744;28;20290;-73
2023/10/23 09:18:03;;;;;;;7.15;1.70;;;;;;;;;;5282917;28;20363;-73
2023/10/23 09:20:34;;;;;;;7.30;1.95;;;;;;;;;;5283938;28;20056;-74
2023/10/23 09:23:11;;;;;;;4.53;1.70;;;;;;;;;;5283796;28;20051;-74
2023/10/23 09:25:42;;;;;;;5.45;1.85;;;;;;;;;;5282999;28;20282;-73
2023/10/23 09:28:13;;;;;;;6.93;1.57;;;;;;;;;;5283626;28;20012;-73
2023/10/23 09:30:44;;;;;;;6.55;1.65;;;;;;;;;;5283148;28;20263;-73
2023/10/23 09:33:16;;;;;;;6.70;1.98;;;;;;;;;;5282719;28;20048;-73
2023/10/23 09:35:47;;;;;;;5.70;1.45;;;;;;;;;;5283021;28;20501;-73
2023/10/23 09:38:18;;;;;;;8.88;1.58;;;;;;;;;;5282925;28;20017;-72
2023/10/23 09:40:50;;;;;;;6.53;1.95;;;;;;;;;;5282982;28;20382;-74
2023/10/23 09:43:22;;;;;;;5.70;1.75;;;;;;;;;;5282951;28;20032;-74
2023/10/23 09:45:54;;;;;;;6.63;1.40;;;;;;;;;;5282095;28;20029;-74
2023/10/23 09:48:27;;;;;;;7.05;1.25;;;;;;;;;;5283041;28;20045;-74
2023/10/23 09:51:00;;;;;;;7.03;1.40;;;;;;;;;;5282986;28;20028;-74
2023/10/23 09:53:32;;;;;;;4.95;1.38;;;;;;;;;;5282157;28;20023;-73
2023/10/23 09:56:05;;;;;;;7.68;2.17;;;;;;;;;;5283193;28;20028;-73
2023/10/23 09:58:37;;;;;;;5.88;1.40;;;;;;;;;;5276565;28;20017;-73
2023/10/23 10:01:11;;;;;;;4.75;1.10;;;;;;;;;;5281242;28;20480;-73
2023/10/23 10:03:42;;;;;;;7.40;1.77;;;;;;;;;;5279136;28;20009;-73
2023/10/23 10:06:15;;;;;;;6.50;1.50;;;;;;;;;;5281543;28;20467;-73
2023/10/23 10:08:50;;;;;;;6.45;1.38;;;;;;;;;;5282181;28;20020;-73
2023/10/23 10:11:21;;;;;;;5.93;1.05;;;;;;;;;;5281454;28;20024;-72
2023/10/23 10:13:53;;;;;;;6.05;1.20;;;;;;;;;;5280892;28;20028;-73
2023/10/23 10:16:24;;;;;;;7.30;1.17;;;;;;;;;;5281843;28;20059;-74
2023/10/23 10:18:55;;;;;;;7.57;1.23;;;;;;;;;;5281568;28;20012;-74
2023/10/23 10:21:27;;;;;;;7.57;1.45;;;;;;;;;;5280772;28;20103;-75
2023/10/23 10:24:00;;;;;;;7.03;0.90;;;;;;;;;;5282259;28;20043;-74
2023/10/23 10:26:34;;;;;;;7.28;1.10;;;;;;;;;;5282346;28;20020;-74
2023/10/23 10:29:08;;;;;;;5.20;1.10;;;;;;;;;;5281518;28;20032;-75
2023/10/23 10:32:04;;;;;;;5.63;0.90;;;;;;;;;;5282580;28;20383;-73
2023/10/23 10:34:37;;;;;;;6.60;1.45;;;;;;;;;;5281349;28;20028;-73
2023/10/23 10:37:09;;;;;;;7.47;1.75;;;;;;;;;;5282062;28;20013;-74
2023/10/23 10:39:46;;;;;;;6.20;1.45;;;;;;;;;;5281932;28;20031;-70
2023/10/23 10:42:18;;;;;;;6.10;1.25;;;;;;;;;;5281825;28;20027;-74
2023/10/23 10:44:52;;;;;;;8.32;1.95;;;;;;;;;;5281551;28;20016;-73
2023/10/23 10:47:36;;;;;;;7.22;1.60;;;;;;;;;;5281594;28;20040;-73
2023/10/23 10:50:10;;;;;;;7.60;1.73;;;;;;;;;;5281274;28;20048;-74
2023/10/23 10:52:43;;;;;;;8.07;2.28;;;;;;;;;;5278873;28;20025;-73
2023/10/23 10:55:17;;;;;;;9.25;1.98;;;;;;;;;;5280810;28;20051;-73
2023/10/23 10:57:48;;;;;;;8.23;1.60;;;;;;;;;;5281369;28;20531;-74
2023/10/23 11:00:19;;;;;;;7.63;1.90;;;;;;;;;;5282047;28;20153;-74
2023/10/23 11:02:50;;;;;;;8.13;1.38;;;;;;;;;;5279662;28;20255;-73
2023/10/23 11:05:22;;;;;;;7.20;1.80;;;;;;;;;;5280142;28;20017;-73
2023/10/23 11:07:53;;;;;;;6.93;1.40;;;;;;;;;;5280302;28;20024;-73
2023/10/23 11:10:24;;;;;;;9.90;1.90;;;;;;;;;;5280689;28;20036;-72
2023/10/23 11:12:55;;;;;;;8.30;1.30;;;;;;;;;;5281610;28;20016;-71
2023/10/23 11:15:27;;;;;;;12.25;1.42;;;;;;;;;;5281745;28;20375;-71
2023/10/23 11:17:58;;;;;;;9.05;2.00;;;;;;;;;;5281004;28;20027;-71
2023/10/23 11:20:31;;;;;;;11.23;1.85;;;;;;;;;;5281499;28;20017;-74
2023/10/23 11:23:02;;;;;;;8.75;1.90;;;;;;;;;;5281374;28;20019;-72
2023/10/23 11:25:34;;;;;;;8.90;1.35;;;;;;;;;;5281038;28;20020;-73
2023/10/23 11:28:05;;;;;;;8.90;1.58;;;;;;;;;;5281734;28;20029;-73
2023/10/23 11:30:43;;;;;;;8.15;1.00;;;;;;;;;;5281020;28;20463;-73
2023/10/23 11:33:17;;;;;;;6.97;1.10;;;;;;;;;;5281325;28;20112;-73
2023/10/23 11:35:49;;;;;;;4.72;1.52;;;;;;;;;;5281124;28;20024;-73
2023/10/23 11:38:20;;;;;;;8.77;1.35;;;;;;;;;;5281123;28;20066;-72
2023/10/23 11:40:54;;;;;;;6.95;1.00;;;;;;;;;;5281185;28;20052;-70
2023/10/23 11:43:26;;;;;;;8.15;1.05;;;;;;;;;;5281485;28;20020;-75
2023/10/23 11:45:57;;;;;;;8.88;1.30;;;;;;;;;;5280492;28;20016;-75
2023/10/23 11:48:28;;;;;;;7.22;1.00;;;;;;;;;;5281093;28;20048;-75
2023/10/23 11:51:00;;;;;;;13.45;2.25;;;;;;;;;;5281463;28;20063;-76
2023/10/23 11:53:33;;;;;;;6.18;0.85;;;;;;;;;;5280414;28;20077;-75
2023/10/23 11:56:04;;;;;;;10.95;1.65;;;;;;;;;;5280938;28;20471;-74
2023/10/23 11:58:35;;;;;;;9.10;1.50;;;;;;;;;;5277471;28;20024;-76
2023/10/23 12:01:07;;;;;;;8.82;1.33;;;;;;;;;;5281023;28;20063;-75
2023/10/23 12:03:38;;;;;;;8.60;1.27;;;;;;;;;;5281301;28;20097;-75
2023/10/23 12:06:10;;;;;;;6.63;0.90;;;;;;;;;;5281170;28;20067;-75
2023/10/23 12:08:41;;;;;;;6.38;0.90;;;;;;;;;;5284799;28;20544;-75
2023/10/23 12:11:12;;;;;;;5.18;1.00;;;;;;;;;;5284529;28;20115;-75
2023/10/23 12:13:43;;;;;;;6.60;1.13;;;;;;;;;;5283650;28;20016;-74
2023/10/23 12:16:14;;;;;;;9.07;1.00;;;;;;;;;;5281197;28;20774;-76
2023/10/23 12:18:45;;;;;;;8.25;1.13;;;;;;;;;;5283147;28;20024;-77
2023/10/23 12:21:18;;;;;;;8.70;1.73;;;;;;;;;;5283675;28;20022;-76
2023/10/23 12:23:49;;;;;;;5.50;1.00;;;;;;;;;;5283869;28;20270;-75
2023/10/23 12:26:21;;;;;;;6.30;1.20;;;;;;;;;;5282651;28;20446;-77
2023/10/23 12:28:52;;;;;;;8.57;1.83;;;;;;;;;;5283859;28;20031;-76
2023/10/23 12:31:23;;;;;;;7.35;1.13;;;;;;;;;;5284238;28;20099;-75
2023/10/23 12:33:54;;;;;;;6.43;1.40;;;;;;;;;;5283518;28;20026;-75
2023/10/23 12:36:26;;;;;;;7.30;1.30;;;;;;;;;;5284347;28;20769;-76
2023/10/23 12:38:57;;;;;;;7.80;1.10;;;;;;;;;;5284431;28;20023;-76
2023/10/23 12:41:28;;;;;;;8.98;1.35;;;;;;;;;;5281869;28;20266;-75
2023/10/23 12:43:59;;;;;;;6.40;1.23;;;;;;;;;;5283613;28;20261;-74
2023/10/23 12:46:30;;;;;;;6.80;1.13;;;;;;;;;;5284162;28;20101;-75
2023/10/23 12:49:02;;;;;;;7.05;1.30;;;;;;;;;;5283365;28;20024;-76
2023/10/23 12:51:33;;;;;;;6.63;1.63;;;;;;;;;;5284415;28;20487;-75
2023/10/23 12:54:04;;;;;;;6.35;1.90;;;;;;;;;;5283993;28;20187;-75
2023/10/23 12:56:35;;;;;;;6.35;1.95;;;;;;;;;;5283621;28;20558;-75
2023/10/23 12:59:07;;;;;;;6.03;1.55;;;;;;;;;;5284043;28;20088;-75
2023/10/23 13:01:38;;;;;;;5.20;1.70;;;;;;;;;;5281410;28;20077;-76
2023/10/23 13:04:09;;;;;;;6.25;1.40;;;;;;;;;;5282936;28;20342;-75
2023/10/23 13:06:40;;;;;;;4.97;2.08;;;;;;;;;;5283719;28;20052;-75
2023/10/23 13:09:12;;;;;;;6.65;1.50;;;;;;;;;;5282918;28;20772;-75
2023/10/23 13:11:44;;;;;;;5.82;1.38;;;;;;;;;;5283517;28;20058;-74
2023/10/23 13:14:15;;;;;;;8.75;1.42;;;;;;;;;;5284151;28;20074;-76
2023/10/23 13:16:46;;;;;;;6.35;1.70;;;;;;;;;;5282489;28;20085;-75
2023/10/23 13:19:18;;;;;;;8.50;2.20;;;;;;;;;;5281504;28;20443;-74
2023/10/23 13:21:49;;;;;;;10.00;2.63;;;;;;;;;;5281993;28;20111;-74
2023/10/23 13:24:20;;;;;;;5.73;1.77;;;;;;;;;;5283047;28;20051;-76
2023/10/23 13:26:52;;;;;;;5.35;1.45;;;;;;;;;;5283201;28;20648;-76
2023/10/23 13:29:23;;;;;;;8.45;2.03;;;;;;;;;;5283367;28;20021;-75
2023/10/23 13:31:54;;;;;;;5.40;1.73;;;;;;;;;;5283079;28;20474;-74
2023/10/23 13:34:26;;;;;;;7.50;2.42;;;;;;;;;;5283144;28;20027;-75
2023/10/23 13:36:57;;;;;;;6.30;1.70;;;;;;;;;;5283325;28;20418;-75
2023/10/23 13:39:28;;;;;;;4.40;1.30;;;;;;;;;;5282771;28;20025;-73
2023/10/23 13:41:59;;;;;;;6.28;1.20;;;;;;;;;;5283284;28;20031;-75
2023/10/23 13:44:31;;;;;;;5.43;1.10;;;;;;;;;;5282361;28;20024;-74
2023/10/23 13:47:02;;;;;;;6.17;1.20;;;;;;;;;;5282810;28;20127;-75
2023/10/23 13:49:34;;;;;;;5.55;1.25;;;;;;;;;;5282907;28;20318;-75
2023/10/23 13:52:05;;;;;;;6.50;1.35;;;;;;;;;;5282215;28;20153;-75
2023/10/23 13:54:37;;;;;;;5.82;1.40;;;;;;;;;;5282451;28;20082;-74
2023/10/23 13:57:08;;;;;;;4.77;1.20;;;;;;;;;;5282758;28;20025;-74
2023/10/23 13:59:39;;;;;;;3.93;1.23;;;;;;;;;;5281946;28;20304;-74
2023/10/23 14:02:10;;;;;;;2.77;1.03;;;;;;;;;;5282879;28;20753;-75
2023/10/23 14:04:41;;;;;;;5.13;1.60;;;;;;;;;;5282452;28;20274;-74
2023/10/23 14:07:12;;;;;;;6.18;1.48;;;;;;;;;;5281950;28;20281;-74
2023/10/23 14:09:44;;;;;;;4.65;1.63;;;;;;;;;;5282534;28;20027;-73
2023/10/23 14:12:15;;;;;;;4.03;1.30;;;;;;;;;;5281998;28;20028;-74
2023/10/23 14:14:47;;;;;;;4.82;1.52;;;;;;;;;;5282149;28;20028;-74
2023/10/23 14:17:18;;;;;;;5.43;1.50;;;;;;;;;;5282692;28;20029;-73
2023/10/23 14:19:49;;;;;;;4.50;1.77;;;;;;;;;;5281339;28;20020;-75
2023/10/23 14:22:20;;;;;;;3.60;1.70;;;;;;;;;;5282596;28;20764;-74
2023/10/23 14:24:51;;;;;;;6.68;1.60;;;;;;;;;;5281663;28;20784;-73
2023/10/23 14:27:23;;;;;;;4.93;1.65;;;;;;;;;;5282008;28;20020;-74
2023/10/23 14:29:54;;;;;;;4.15;1.90;;;;;;;;;;5281500;28;20058;-75
2023/10/23 14:32:25;;;;;;;3.07;1.33;;;;;;;;;;5282015;28;20030;-74
2023/10/23 14:34:56;;;;;;;4.17;1.50;;;;;;;;;;5280764;28;20287;-73
2023/10/23 14:37:27;;;;;;;4.85;2.00;;;;;;;;;;5281687;28;20876;-74
2023/10/23 14:39:59;;;;;;;5.38;2.42;;;;;;;;;;5281862;28;20029;-76
2023/10/23 14:42:30;;;;;;;5.78;2.03;;;;;;;;;;5281136;28;20101;-76
2023/10/23 14:45:03;;;;;;;4.27;2.10;;;;;;;;;;5282030;28;20151;-76
2023/10/23 14:47:35;;;;;;;4.68;1.70;;;;;;;;;;5281078;28;20301;-75
2023/10/23 14:50:07;;;;;;;6.20;1.73;;;;;;;;;;5282191;28;20016;-76
2023/10/23 14:52:38;;;;;;;4.20;1.10;;;;;;;;;;5282119;28;20107;-76
2023/10/23 14:55:09;;;;;;;2.88;1.15;;;;;;;;;;5281302;28;20116;-76
2023/10/23 14:57:41;;;;;;;6.03;1.40;;;;;;;;;;5281542;28;20048;-77
2023/10/23 15:00:12;;;;;;;4.07;2.05;;;;;;;;;;5281633;28;20025;-76
2023/10/23 15:02:45;;;;;;;4.15;1.33;;;;;;;;;;5279591;28;20025;-76
2023/10/23 15:05:16;;;;;;;5.28;1.90;;;;;;;;;;5281928;28;20017;-76
2023/10/23 15:07:47;;;;;;;4.43;1.27;;;;;;;;;;5281301;28;20039;-75
2023/10/23 15:10:20;;;;;;;5.15;1.50;;;;;;;;;;5279737;28;20271;-74